Time;durP1;ratioP1;P1;durP2;ratioP2;P2;SDS_P1;SDS_P2;PMS_P1;PMS_P2;Temp;Humidity;BMP_temperature;BMP_pressure;BME280_temperature;BME280_humidity;BME280_pressure;Samples;Min_cycle;Max_cycle;Signal;HPM_P1;HPM_P2
2022/06/14 00:03:17;;;;;;;;;;;;;;;12.03;62.11;102375.16;5054510;28;19935;-63
2022/06/14 00:05:42;;;;;;;;;;;;;;;11.93;62.08;102386.56;5063386;28;20477;-61
2022/06/14 00:08:08;;;;;;;;;;;;;;;11.88;62.38;102383.47;5061206;28;19924;-62
2022/06/14 00:10:34;;;;;;;;;;;;;;;11.81;62.56;102382.31;5061557;28;19935;-63
2022/06/14 00:12:59;;;;;;;;;;;;;;;11.82;62.22;102378.69;5053146;28;19925;-62
2022/06/14 00:15:24;;;;;;;;;;;;;;;11.80;62.62;102370.00;5061180;28;19950;-61
2022/06/14 00:17:49;;;;;;;;;;;;;;;11.76;61.90;102373.91;5041964;28;20020;-63
2022/06/14 00:20:15;;;;;;;;;;;;;;;11.73;62.77;102368.88;5054346;28;20027;-61
2022/06/14 00:22:40;;;;;;;;;;;;;;;11.67;62.66;102367.56;5062508;28;19931;-62
2022/06/14 00:25:06;;;;;;;;;;;;;;;11.61;62.82;102371.59;5061484;28;19973;-62
2022/06/14 00:27:31;;;;;;;;;;;;;;;11.58;62.40;102371.84;5057018;28;20017;-61
2022/06/14 00:29:56;;;;;;;;;;;;;;;11.61;62.63;102365.41;5058882;28;20014;-61
2022/06/14 00:32:22;;;;;;;;;;;;;;;11.59;63.73;102370.84;5041997;28;20040;-62
2022/06/14 00:34:47;;;;;;;;;;;;;;;11.57;63.80;102375.47;5062483;28;19928;-62
2022/06/14 00:37:14;;;;;;;;;;;;;;;11.53;63.50;102374.03;5061470;28;19973;-61
2022/06/14 00:39:39;;;;;;;;;;;;;;;11.49;64.81;102364.66;5060115;28;19934;-63
2022/06/14 00:42:04;;;;;;;;;;;;;;;11.46;64.13;102368.41;5060218;28;19925;-60
2022/06/14 00:44:29;;;;;;;;;;;;;;;11.36;65.68;102356.88;5059108;28;19924;-63
2022/06/14 00:46:58;;;;;;;;;;;;;;;11.24;64.67;102350.75;5061982;28;20267;-61
2022/06/14 00:49:26;;;;;;;;;;;;;;;11.13;64.98;102357.84;5060976;28;19924;-62
2022/06/14 00:51:54;;;;;;;;;;;;;;;11.11;63.94;102351.78;5054425;28;19927;-61
2022/06/14 00:54:21;;;;;;;;;;;;;;;11.07;64.05;102353.03;5061543;28;19924;-60
2022/06/14 00:57:00;;;;;;;;;;;;;;;11.02;65.03;102352.56;5063571;28;19955;-62
2022/06/14 00:59:25;;;;;;;;;;;;;;;11.03;63.93;102352.44;5059630;28;19935;-61
2022/06/14 01:01:53;;;;;;;;;;;;;;;11.10;64.65;102360.72;5057398;28;19925;-62
2022/06/14 01:04:22;;;;;;;;;;;;;;;11.14;64.44;102343.59;5052372;28;19916;-61
2022/06/14 01:07:06;;;;;;;;;;;;;;;11.19;64.51;102358.31;5060103;28;19936;-62
2022/06/14 01:09:34;;;;;;;;;;;;;;;11.19;64.67;102358.31;5056013;28;19924;-62
2022/06/14 01:12:03;;;;;;;;;;;;;;;11.19;64.70;102351.16;5060090;28;19928;-61
2022/06/14 01:14:51;;;;;;;;;;;;;;;11.13;64.48;102352.53;5062648;28;19927;-62
2022/06/14 01:17:17;;;;;;;;;;;;;;;11.11;65.00;102354.44;5010729;28;19925;-62
2022/06/14 01:19:42;;;;;;;;;;;;;;;11.09;64.77;102356.41;5057853;28;19924;-62
2022/06/14 01:22:07;;;;;;;;;;;;;;;11.08;65.30;102362.69;5061771;28;20477;-60
2022/06/14 01:24:34;;;;;;;;;;;;;;;10.97;65.61;102360.06;5062431;28;19931;-62
2022/06/14 01:27:00;;;;;;;;;;;;;;;10.92;65.38;102348.97;5058820;28;19936;-60
2022/06/14 01:29:26;;;;;;;;;;;;;;;10.89;66.11;102350.06;5061213;28;20366;-61
2022/06/14 01:31:54;;;;;;;;;;;;;;;10.85;66.27;102346.84;5063015;28;19924;-62
2022/06/14 01:34:20;;;;;;;;;;;;;;;10.80;66.21;102345.53;5034965;28;19924;-62
2022/06/14 01:36:46;;;;;;;;;;;;;;;10.80;65.70;102351.69;5055046;28;19921;-62
2022/06/14 01:39:14;;;;;;;;;;;;;;;10.84;65.69;102345.16;5061703;28;19924;-61
2022/06/14 01:41:42;;;;;;;;;;;;;;;10.84;66.98;102342.50;5060270;28;19932;-61
2022/06/14 01:44:23;;;;;;;;;;;;;;;10.72;66.46;102336.38;5059463;28;19928;-62
2022/06/14 01:46:58;;;;;;;;;;;;;;;10.65;66.04;102337.03;5061519;28;19977;-61
2022/06/14 01:52:31;;;;;;;;;;;;;;;10.61;65.97;102337.25;5059910;28;19981;-61
2022/06/14 01:54:59;;;;;;;;;;;;;;;10.63;66.49;102338.00;5059982;28;20003;-61
2022/06/14 01:57:24;;;;;;;;;;;;;;;10.62;66.72;102328.34;5059580;28;19924;-61
2022/06/14 02:00:09;;;;;;;;;;;;;;;10.61;66.58;102337.25;5040530;28;20389;-61
2022/06/14 02:02:51;;;;;;;;;;;;;;;10.59;67.37;102333.03;5057036;28;19924;-62
2022/06/14 02:05:16;;;;;;;;;;;;;;;10.59;67.36;102328.59;5060777;28;20568;-62
2022/06/14 02:07:44;;;;;;;;;;;;;;;10.52;67.79;102323.91;5058536;28;19958;-61
2022/06/14 02:10:16;;;;;;;;;;;;;;;10.43;67.93;102326.34;5060865;28;20015;-62
2022/06/14 02:12:55;;;;;;;;;;;;;;;10.36;68.41;102318.00;5058614;28;20058;-62
2022/06/14 02:15:20;;;;;;;;;;;;;;;10.31;66.80;102314.88;5060727;28;19924;-62
2022/06/14 02:17:54;;;;;;;;;;;;;;;10.29;67.69;102316.81;5057613;28;20007;-62
2022/06/14 02:20:22;;;;;;;;;;;;;;;10.27;67.93;102313.44;5042524;28;20490;-61
2022/06/14 02:23:03;;;;;;;;;;;;;;;10.25;68.36;102312.72;5058402;28;19929;-61
2022/06/14 02:25:39;;;;;;;;;;;;;;;10.25;67.57;102310.06;5060355;28;20485;-60
2022/06/14 02:28:14;;;;;;;;;;;;;;;10.25;67.12;102304.75;5064832;28;19924;-62
2022/06/14 02:30:49;;;;;;;;;;;;;;;10.24;67.70;102303.09;5061756;28;19978;-60
2022/06/14 02:33:18;;;;;;;;;;;;;;;10.27;67.38;102302.81;5059280;28;19924;-61
2022/06/14 02:35:43;;;;;;;;;;;;;;;10.32;67.25;102313.91;5060421;28;19952;-61
2022/06/14 02:38:15;;;;;;;;;;;;;;;10.35;67.35;102311.03;5061022;28;20378;-61
2022/06/14 02:40:51;;;;;;;;;;;;;;;10.35;68.29;102305.72;5061682;28;19925;-63
2022/06/14 02:43:19;;;;;;;;;;;;;;;10.30;68.82;102297.28;5078975;28;19924;-62
2022/06/14 02:45:50;;;;;;;;;;;;;;;10.27;67.67;102297.50;5065625;28;19953;-61
2022/06/14 02:48:19;;;;;;;;;;;;;;;10.28;67.55;102293.94;5063766;28;19924;-61
2022/06/14 02:50:56;;;;;;;;;;;;;;;10.30;67.93;102291.97;5060937;28;19986;-61
2022/06/14 02:53:24;;;;;;;;;;;;;;;10.28;67.43;102299.22;5056110;28;19941;-62
2022/06/14 02:55:53;;;;;;;;;;;;;;;10.25;68.57;102291.50;5063727;28;20019;-61
2022/06/14 02:58:18;;;;;;;;;;;;;;;10.19;68.04;102294.66;5057931;28;20746;-61
2022/06/14 03:00:52;;;;;;;;;;;;;;;10.16;68.78;102295.75;5064508;28;20398;-62
2022/06/14 03:03:21;;;;;;;;;;;;;;;10.07;69.66;102296.50;5061978;28;20058;-62
2022/06/14 03:06:01;;;;;;;;;;;;;;;9.90;70.58;102297.81;5058271;28;20023;-61
2022/06/14 03:08:29;;;;;;;;;;;;;;;9.76;68.90;102294.44;5063634;28;19924;-61
2022/06/14 03:11:24;;;;;;;;;;;;;;;9.72;69.60;102303.56;5062083;28;19950;-63
2022/06/14 03:13:59;;;;;;;;;;;;;;;9.70;70.69;102300.22;5019984;28;19925;-61
2022/06/14 03:16:31;;;;;;;;;;;;;;;9.63;70.31;102299.00;5063304;28;19924;-61
2022/06/14 03:18:56;;;;;;;;;;;;;;;9.61;69.57;102300.91;5062697;28;20023;-61
2022/06/14 03:21:37;;;;;;;;;;;;;;;9.65;68.87;102307.69;5058927;28;20067;-61
2022/06/14 03:24:02;;;;;;;;;;;;;;;9.68;69.00;102302.97;5063575;28;19920;-61
2022/06/14 03:26:48;;;;;;;;;;;;;;;9.70;69.05;102305.50;5062483;28;19977;-61
2022/06/14 03:29:15;;;;;;;;;;;;;;;9.74;68.71;102306.13;5059604;28;20378;-63
2022/06/14 03:31:48;;;;;;;;;;;;;;;9.77;69.44;102305.91;5061221;28;19932;-61
2022/06/14 03:34:35;;;;;;;;;;;;;;;9.73;69.29;102300.00;5035870;28;20307;-62
2022/06/14 03:37:01;;;;;;;;;;;;;;;9.67;69.20;102303.13;5062416;28;19925;-60
2022/06/14 03:39:30;;;;;;;;;;;;;;;9.65;69.06;102307.69;5052957;28;19921;-62
2022/06/14 03:41:55;;;;;;;;;;;;;;;9.66;69.60;102304.06;5062977;28;19971;-62
2022/06/14 03:44:22;;;;;;;;;;;;;;;9.65;69.51;102302.38;5062272;28;19959;-62
2022/06/14 03:47:07;;;;;;;;;;;;;;;9.64;68.85;102300.69;5063333;28;20409;-62
2022/06/14 03:49:33;;;;;;;;;;;;;;;9.63;70.23;102304.31;5050005;28;19949;-61
2022/06/14 03:52:07;;;;;;;;;;;;;;;9.59;69.97;102300.22;5063865;28;19994;-62
2022/06/14 03:54:41;;;;;;;;;;;;;;;9.55;70.33;102297.81;5061782;28;19966;-61
2022/06/14 03:57:09;;;;;;;;;;;;;;;9.59;70.79;102300.22;5064156;28;19928;-61
2022/06/14 03:59:49;;;;;;;;;;;;;;;9.57;70.20;102299.50;5056173;28;19935;-61
2022/06/14 04:02:20;;;;;;;;;;;;;;;9.57;69.81;102296.84;5054695;28;19924;-60
2022/06/14 04:05:06;;;;;;;;;;;;;;;9.61;69.54;102298.28;5059430;28;20065;-62
2022/06/14 04:07:38;;;;;;;;;;;;;;;9.64;69.23;102306.00;5063153;28;19988;-62
2022/06/14 04:10:31;;;;;;;;;;;;;;;9.67;69.77;102306.59;5063634;28;19963;-60
2022/06/14 04:13:15;;;;;;;;;;;;;;;9.69;70.18;102309.97;5061905;28;19924;-61
2022/06/14 04:15:56;;;;;;;;;;;;;;;9.74;70.20;102306.97;5056235;28;19938;-61
2022/06/14 04:18:38;;;;;;;;;;;;;;;9.74;70.73;102317.56;5060006;28;19925;-62
2022/06/14 04:21:13;;;;;;;;;;;;;;;9.69;71.17;102322.38;5044468;28;19924;-60
2022/06/14 04:23:47;;;;;;;;;;;;;;;9.68;70.95;102313.56;5057233;28;19925;-61
2022/06/14 04:26:15;;;;;;;;;;;;;;;9.72;70.16;102314.19;5063801;28;19924;-61
2022/06/14 04:28:54;;;;;;;;;;;;;;;9.77;70.13;102322.63;5059136;28;19927;-62
2022/06/14 04:31:37;;;;;;;;;;;;;;;9.82;70.59;102315.16;5062173;28;20046;-61
2022/06/14 04:34:05;;;;;;;;;;;;;;;9.88;70.07;102319.16;5060577;28;19990;-62
2022/06/14 04:36:47;;;;;;;;;;;;;;;9.87;70.29;102320.09;5057226;28;19927;-62
2022/06/14 04:39:15;;;;;;;;;;;;;;;9.87;70.57;102317.44;5058613;28;20275;-61
2022/06/14 04:41:44;;;;;;;;;;;;;;;9.88;70.78;102320.94;5064541;28;19929;-61
2022/06/14 04:44:28;;;;;;;;;;;;;;;9.90;70.87;102319.84;5062346;28;19935;-60
2022/06/14 04:47:04;;;;;;;;;;;;;;;9.97;70.45;102322.88;5063550;28;19990;-61
2022/06/14 04:49:35;;;;;;;;;;;;;;;10.03;69.88;102322.41;5063181;28;19968;-61
2022/06/14 04:52:11;;;;;;;;;;;;;;;10.09;70.10;102315.75;5060027;28;19935;-61
2022/06/14 04:54:37;;;;;;;;;;;;;;;10.17;71.08;102328.41;5061783;28;20413;-61
2022/06/14 04:57:05;;;;;;;;;;;;;;;10.22;69.65;102320.94;5063362;28;20015;-62
2022/06/14 04:59:37;;;;;;;;;;;;;;;10.27;69.10;102320.56;5057375;28;19974;-62
2022/06/14 05:02:09;;;;;;;;;;;;;;;10.32;70.21;102321.84;5062306;28;19936;-60
2022/06/14 05:04:37;;;;;;;;;;;;;;;10.37;69.58;102321.50;5063296;28;19989;-62
2022/06/14 05:07:20;;;;;;;;;;;;;;;10.44;70.00;102324.53;5061861;28;19954;-61
2022/06/14 05:09:49;;;;;;;;;;;;;;;10.52;70.38;102322.13;5057796;28;19927;-61
2022/06/14 05:12:17;;;;;;;;;;;;;;;10.57;71.21;102319.06;5061365;28;19925;-60
2022/06/14 05:15:05;;;;;;;;;;;;;;;10.63;69.89;102329.19;5056377;28;19975;-60
2022/06/14 05:17:35;;;;;;;;;;;;;;;10.69;70.19;102327.81;5055814;28;19992;-63
2022/06/14 05:20:10;;;;;;;;;;;;;;;10.75;69.94;102332.63;5056088;28;20011;-62
2022/06/14 05:22:42;;;;;;;;;;;;;;;10.81;70.11;102326.81;5055286;28;19948;-62
2022/06/14 05:25:09;;;;;;;;;;;;;;;10.86;70.36;102324.63;5059832;28;20635;-60
2022/06/14 05:27:53;;;;;;;;;;;;;;;10.92;71.97;102333.06;5062887;28;19931;-61
2022/06/14 05:30:30;;;;;;;;;;;;;;;10.98;71.88;102332.56;5054965;28;19936;-61
2022/06/14 05:33:16;;;;;;;;;;;;;;;11.05;71.36;102333.72;5050735;28;19929;-61
2022/06/14 05:35:48;;;;;;;;;;;;;;;11.11;71.17;102327.91;5056757;28;19928;-61
2022/06/14 05:38:32;;;;;;;;;;;;;;;11.21;70.11;102332.44;5059517;28;19924;-62
2022/06/14 05:41:01;;;;;;;;;;;;;;;11.30;71.88;102332.50;5058389;28;19929;-61
2022/06/14 05:43:34;;;;;;;;;;;;;;;11.37;72.19;102326.69;5058425;28;19928;-61
2022/06/14 05:46:11;;;;;;;;;;;;;;;11.46;70.86;102333.03;5060135;28;19978;-61
2022/06/14 05:48:42;;;;;;;;;;;;;;;11.56;71.05;102331.28;5059742;28;19974;-62
2022/06/14 05:51:10;;;;;;;;;;;;;;;11.66;71.41;102321.56;5056457;28;19924;-62
2022/06/14 05:53:47;;;;;;;;;;;;;;;11.76;70.70;102331.38;5057413;28;20306;-62
2022/06/14 05:56:23;;;;;;;;;;;;;;;11.84;69.75;102334.19;5059266;28;19935;-62
2022/06/14 05:58:48;;;;;;;;;;;;;;;11.94;69.90;102335.09;5054619;28;20362;-62
2022/06/14 06:01:16;;;;;;;;;;;;;;;12.07;69.43;102339.38;5060671;28;19982;-62
2022/06/14 06:03:46;;;;;;;;;;;;;;;12.18;69.65;102341.94;5059734;28;19966;-61
2022/06/14 06:06:19;;;;;;;;;;;;;;;12.31;68.89;102332.88;5063697;28;19934;-60
2022/06/14 06:08:50;;;;;;;;;;;;;;;12.42;69.23;102337.22;5064850;28;20394;-61
2022/06/14 06:11:25;;;;;;;;;;;;;;;12.52;69.78;102343.41;5067670;28;19924;-61
2022/06/14 06:14:10;;;;;;;;;;;;;;;12.61;68.80;102344.41;5066774;28;20458;-63
2022/06/14 06:16:56;;;;;;;;;;;;;;;12.77;68.81;102344.72;5067037;28;19924;-62
2022/06/14 06:19:24;;;;;;;;;;;;;;;12.84;69.74;102346.81;5049562;28;19928;-62
2022/06/14 06:21:56;;;;;;;;;;;;;;;12.95;68.52;102343.16;5064360;28;19925;-61
2022/06/14 06:24:25;;;;;;;;;;;;;;;13.05;68.50;102339.53;5060521;28;20013;-61
2022/06/14 06:27:03;;;;;;;;;;;;;;;13.19;68.22;102345.41;5064309;28;20963;-58
2022/06/14 06:29:36;;;;;;;;;;;;;;;13.24;68.64;102343.16;5065242;28;19928;-59
2022/06/14 06:32:03;;;;;;;;;;;;;;;13.35;68.39;102349.28;5066283;28;19951;-58
2022/06/14 06:34:28;;;;;;;;;;;;;;;13.46;67.95;102346.50;5065360;28;19924;-60
2022/06/14 06:37:16;;;;;;;;;;;;;;;13.54;68.00;102346.66;5066516;28;19974;-61
2022/06/14 06:39:41;;;;;;;;;;;;;;;13.64;67.72;102348.44;5065274;28;20072;-58
2022/06/14 06:42:09;;;;;;;;;;;;;;;13.72;67.47;102357.38;5061826;28;20011;-59
2022/06/14 06:44:37;;;;;;;;;;;;;;;13.80;66.93;102354.00;5063356;28;19924;-59
2022/06/14 06:47:03;;;;;;;;;;;;;;;13.88;66.76;102347.09;5068224;28;19923;-60
2022/06/14 06:49:33;;;;;;;;;;;;;;;13.93;66.67;102351.00;5069893;28;19935;-60
2022/06/14 06:52:01;;;;;;;;;;;;;;;14.00;66.46;102348.56;5072657;28;19939;-61
2022/06/14 06:54:26;;;;;;;;;;;;;;;14.04;65.37;102352.66;5068544;28;19924;-59
2022/06/14 06:56:53;;;;;;;;;;;;;;;14.08;65.89;102345.19;5070781;28;19924;-61
2022/06/14 06:59:24;;;;;;;;;;;;;;;14.13;64.63;102348.25;5068118;28;20007;-61
2022/06/14 07:01:51;;;;;;;;;;;;;;;14.21;64.68;102350.19;5070911;28;19924;-62
2022/06/14 07:04:19;;;;;;;;;;;;;;;14.36;63.55;102348.69;5068375;28;20282;-59
2022/06/14 07:06:51;;;;;;;;;;;;;;;14.37;62.75;102344.19;5072252;28;20043;-60
2022/06/14 07:09:24;;;;;;;;;;;;;;;14.31;61.54;102342.94;5067504;28;19943;-59
2022/06/14 07:11:53;;;;;;;;;;;;;;;14.41;60.34;102350.06;5067880;28;19928;-61
2022/06/14 07:14:21;;;;;;;;;;;;;;;14.58;60.09;102346.59;5072547;28;19924;-60
2022/06/14 07:17:06;;;;;;;;;;;;;;;14.50;61.50;102351.81;5066484;28;19952;-61
2022/06/14 07:19:39;;;;;;;;;;;;;;;14.57;60.54;102358.25;5066571;28;20292;-61
2022/06/14 07:22:13;;;;;;;;;;;;;;;14.74;59.63;102355.72;5070837;28;20509;-61
2022/06/14 07:24:46;;;;;;;;;;;;;;;14.64;59.86;102348.66;5072304;28;20397;-62
2022/06/14 07:27:14;;;;;;;;;;;;;;;14.74;60.64;102347.72;5068101;28;19934;-60
2022/06/14 07:29:58;;;;;;;;;;;;;;;14.82;59.83;102347.84;5065917;28;19929;-62
2022/06/14 07:32:25;;;;;;;;;;;;;;;14.91;56.11;102349.59;5067342;28;19917;-59
2022/06/14 07:34:51;;;;;;;;;;;;;;;14.97;58.39;102344.63;5071757;28;19924;-60
2022/06/14 07:37:19;;;;;;;;;;;;;;;15.02;58.47;102353.03;5067790;28;19956;-62
2022/06/14 07:39:44;;;;;;;;;;;;;;;15.01;59.03;102349.50;5066869;28;19932;-63
2022/06/14 07:42:16;;;;;;;;;;;;;;;15.09;57.70;102348.72;5067477;28;19984;-63
2022/06/14 07:45:01;;;;;;;;;;;;;;;15.17;57.49;102340.81;5066801;28;19924;-62
2022/06/14 07:47:36;;;;;;;;;;;;;;;15.16;57.82;102344.44;5068997;28;19925;-62
2022/06/14 07:50:12;;;;;;;;;;;;;;;15.25;58.29;102347.19;5073613;28;19931;-63
2022/06/14 07:52:43;;;;;;;;;;;;;;;15.34;57.71;102346.25;5069079;28;20024;-62
2022/06/14 07:55:15;;;;;;;;;;;;;;;15.39;57.11;102345.78;5067945;28;20332;-63
2022/06/14 07:57:44;;;;;;;;;;;;;;;15.50;57.82;102350.03;5070056;28;19955;-61
2022/06/14 08:03:01;;;;;;;;;;;;;;;15.61;57.10;102347.09;5057019;28;19932;-63
2022/06/14 08:05:30;;;;;;;;;;;;;;;15.67;56.38;102346.47;5062866;28;20006;-61
2022/06/14 08:07:59;;;;;;;;;;;;;;;15.70;57.05;102346.13;5066561;28;19998;-62
2022/06/14 08:10:32;;;;;;;;;;;;;;;15.76;56.32;102341.16;5068456;28;20543;-62
2022/06/14 08:13:05;;;;;;;;;;;;;;;15.82;56.52;102337.84;5056822;28;19929;-61
2022/06/14 08:15:32;;;;;;;;;;;;;;;15.90;53.74;102339.72;5051734;28;19921;-59
2022/06/14 08:18:00;;;;;;;;;;;;;;;15.94;53.92;102331.22;5060859;28;20713;-62
2022/06/14 08:20:44;;;;;;;;;;;;;;;15.98;55.65;102327.25;5064237;28;20386;-60
2022/06/14 08:23:13;;;;;;;;;;;;;;;16.12;53.82;102325.81;5061643;28;19935;-60
2022/06/14 08:25:42;;;;;;;;;;;;;;;16.12;54.69;102330.31;5060218;28;19927;-59
2022/06/14 08:28:09;;;;;;;;;;;;;;;16.16;53.61;102331.66;5061352;28;20294;-59
2022/06/14 08:30:39;;;;;;;;;;;;;;;16.19;54.21;102325.16;5064793;28;19916;-60
2022/06/14 08:33:08;;;;;;;;;;;;;;;16.19;52.19;102328.66;5051899;28;20299;-61
2022/06/14 08:35:36;;;;;;;;;;;;;;;16.20;53.14;102324.16;5063090;28;19947;-62
2022/06/14 08:38:06;;;;;;;;;;;;;;;16.27;52.91;102320.66;5047713;28;19987;-59
2022/06/14 08:40:43;;;;;;;;;;;;;;;16.30;53.22;102318.66;5035590;28;19974;-59
2022/06/14 08:43:10;;;;;;;;;;;;;;;16.52;52.63;102319.88;5058748;28;19948;-61
2022/06/14 08:45:40;;;;;;;;;;;;;;;16.37;53.53;102315.16;5061511;28;20028;-60
2022/06/14 08:48:15;;;;;;;;;;;;;;;16.53;53.46;102314.34;5049554;28;19925;-61
2022/06/14 08:50:57;;;;;;;;;;;;;;;16.55;53.16;102322.22;5051469;28;19925;-60
2022/06/14 08:53:38;;;;;;;;;;;;;;;16.51;52.60;102316.38;5057864;28;19978;-62
2022/06/14 08:56:22;;;;;;;;;;;;;;;16.54;52.04;102320.56;5061672;28;20391;-59
2022/06/14 08:58:56;;;;;;;;;;;;;;;16.51;50.41;102315.50;5059695;28;20723;-59
2022/06/14 09:01:34;;;;;;;;;;;;;;;16.56;53.27;102317.69;5059753;28;20469;-60
2022/06/14 09:04:19;;;;;;;;;;;;;;;16.68;53.51;102322.56;5059804;28;19928;-60
2022/06/14 09:06:55;;;;;;;;;;;;;;;16.87;52.89;102319.75;5054175;28;20275;-61
2022/06/14 09:09:48;;;;;;;;;;;;;;;16.94;52.16;102323.44;5054057;28;20013;-61
2022/06/14 09:12:27;;;;;;;;;;;;;;;16.98;51.46;102319.41;5052864;28;19928;-60
2022/06/14 09:15:11;;;;;;;;;;;;;;;16.95;52.20;102311.69;5054294;28;19985;-60
2022/06/14 09:17:53;;;;;;;;;;;;;;;17.01;51.29;102315.53;5055961;28;20394;-62
2022/06/14 09:20:34;;;;;;;;;;;;;;;17.15;51.39;102319.41;5056383;28;19929;-61
2022/06/14 09:23:09;;;;;;;;;;;;;;;17.17;51.88;102320.91;5056093;28;19924;-62
2022/06/14 09:25:47;;;;;;;;;;;;;;;17.23;51.24;102315.88;5062978;28;19931;-60
2022/06/14 09:28:21;;;;;;;;;;;;;;;17.24;51.58;102310.38;5058579;28;19947;-62
2022/06/14 09:30:46;;;;;;;;;;;;;;;17.31;51.70;102306.00;5053005;28;19996;-59
2022/06/14 09:33:20;;;;;;;;;;;;;;;17.38;51.60;102305.31;5056902;28;19970;-62
2022/06/14 09:36:04;;;;;;;;;;;;;;;17.43;51.60;102305.63;5056438;28;19998;-61
2022/06/14 09:38:48;;;;;;;;;;;;;;;17.52;51.26;102304.59;5053576;28;19935;-60
2022/06/14 09:41:37;;;;;;;;;;;;;;;17.55;50.28;102309.63;5055318;28;19974;-62
2022/06/14 09:44:21;;;;;;;;;;;;;;;17.65;50.62;102295.19;5049517;28;19925;-60
2022/06/14 09:46:55;;;;;;;;;;;;;;;17.66;50.38;102291.50;5055543;28;19924;-60
2022/06/14 09:49:45;;;;;;;;;;;;;;;17.71;49.31;102289.13;5053105;28;20002;-59
2022/06/14 09:52:29;;;;;;;;;;;;;;;17.86;49.04;102286.56;5050845;28;19925;-61
2022/06/14 09:55:09;;;;;;;;;;;;;;;17.90;49.15;102276.31;5050442;28;20474;-61
2022/06/14 09:57:41;;;;;;;;;;;;;;;17.93;49.92;102276.78;5065926;28;20425;-62
2022/06/14 10:00:33;;;;;;;;;;;;;;;18.05;49.97;102279.91;5054719;28;19924;-62
2022/06/14 10:03:04;;;;;;;;;;;;;;;18.23;49.74;102276.13;5027712;28;19929;-60
2022/06/14 10:05:48;;;;;;;;;;;;;;;18.10;48.63;102277.56;5054389;28;19931;-59
2022/06/14 10:08:31;;;;;;;;;;;;;;;18.01;49.87;102273.22;5057049;28;19977;-61
2022/06/14 10:11:15;;;;;;;;;;;;;;;18.12;50.25;102270.16;5062261;28;20029;-60
2022/06/14 10:13:47;;;;;;;;;;;;;;;18.23;50.02;102276.13;5054526;28;20360;-61
2022/06/14 10:16:32;;;;;;;;;;;;;;;18.35;50.50;102274.72;5050993;28;20371;-60
2022/06/14 10:19:15;;;;;;;;;;;;;;;18.48;49.50;102267.91;5054668;28;19924;-59
2022/06/14 10:21:48;;;;;;;;;;;;;;;18.56;49.42;102270.56;5076420;28;20477;-59
2022/06/14 10:24:23;;;;;;;;;;;;;;;18.53;48.31;102274.44;5060372;28;19946;-60
2022/06/14 10:30:03;;;;;;;;;;;;;;;18.62;48.09;102264.44;5060086;28;20397;-58
2022/06/14 10:32:37;;;;;;;;;;;;;;;18.74;47.81;102255.97;5065703;28;19939;-59
2022/06/14 10:35:05;;;;;;;;;;;;;;;18.71;48.89;102245.56;5057801;28;19924;-59
2022/06/14 10:37:31;;;;;;;;;;;;;;;18.78;48.34;102246.50;5034278;28;19964;-59
2022/06/14 10:40:12;;;;;;;;;;;;;;;18.94;48.31;102243.66;5061687;28;19983;-60
2022/06/14 10:42:55;;;;;;;;;;;;;;;18.93;48.69;102239.31;5055961;28;20044;-59
2022/06/14 10:45:21;;;;;;;;;;;;;;;18.95;48.83;102237.28;5057018;28;19998;-63
2022/06/14 10:48:07;;;;;;;;;;;;;;;19.16;46.67;102235.75;5055219;28;20442;-62
2022/06/14 10:51:01;;;;;;;;;;;;;;;19.01;48.48;102229.50;5057996;28;20314;-64
2022/06/14 10:53:42;;;;;;;;;;;;;;;19.13;47.83;102228.03;5036237;28;20039;-62
2022/06/14 10:56:26;;;;;;;;;;;;;;;19.19;47.81;102224.63;5062034;28;19924;-62
2022/06/14 10:58:54;;;;;;;;;;;;;;;19.20;47.67;102223.59;5065608;28;19978;-64
2022/06/14 11:01:28;;;;;;;;;;;;;;;19.23;47.87;102214.31;5071345;28;19924;-63
2022/06/14 11:04:13;;;;;;;;;;;;;;;19.33;46.75;102219.41;5057135;28;20497;-62
2022/06/14 11:06:56;;;;;;;;;;;;;;;19.43;46.17;102209.22;5061382;28;20005;-63
2022/06/14 11:09:24;;;;;;;;;;;;;;;19.52;45.63;102209.94;5063088;28;20022;-63
2022/06/14 11:11:55;;;;;;;;;;;;;;;19.49;46.52;102208.47;5063368;28;20046;-63
2022/06/14 11:14:30;;;;;;;;;;;;;;;19.55;46.97;102208.72;5058500;28;19935;-62
2022/06/14 11:17:10;;;;;;;;;;;;;;;19.69;46.41;102212.44;5068591;28;19934;-62
2022/06/14 11:19:35;;;;;;;;;;;;;;;19.70;45.05;102206.84;5059237;28;20643;-62
2022/06/14 11:22:00;;;;;;;;;;;;;;;19.59;45.76;102208.16;5057362;28;19924;-63
2022/06/14 11:24:48;;;;;;;;;;;;;;;19.68;46.54;102205.38;5058635;28;19924;-62
2022/06/14 11:27:19;;;;;;;;;;;;;;;19.86;45.00;102203.09;5031744;28;19999;-62
2022/06/14 11:30:00;;;;;;;;;;;;;;;19.99;44.17;102204.28;5064107;28;20009;-63
2022/06/14 11:32:29;;;;;;;;;;;;;;;19.98;44.17;102198.06;5057825;28;19931;-63
2022/06/14 11:34:57;;;;;;;;;;;;;;;19.89;45.31;102193.81;5055846;28;19924;-63
2022/06/14 11:37:34;;;;;;;;;;;;;;;20.01;45.05;102186.06;5058236;28;20287;-63
2022/06/14 11:40:02;;;;;;;;;;;;;;;20.14;44.08;102190.78;5061860;28;20012;-63
2022/06/14 11:42:30;;;;;;;;;;;;;;;20.00;44.82;102179.88;5060821;28;19924;-62
2022/06/14 11:44:55;;;;;;;;;;;;;;;20.11;43.22;102174.97;5061496;28;19924;-63
2022/06/14 11:47:39;;;;;;;;;;;;;;;19.93;44.45;102173.53;5058236;28;19932;-62
2022/06/14 11:50:19;;;;;;;;;;;;;;;19.95;43.12;102174.19;5058104;28;19924;-62
2022/06/14 11:53:08;;;;;;;;;;;;;;;19.96;44.70;102167.81;5059959;28;19921;-62
2022/06/14 11:55:36;;;;;;;;;;;;;;;20.19;43.56;102172.19;5056474;28;19936;-62
2022/06/14 11:58:16;;;;;;;;;;;;;;;20.22;43.63;102166.38;5059972;28;19986;-61
2022/06/14 12:01:00;;;;;;;;;;;;;;;20.29;43.81;102161.88;5060481;28;19924;-62
2022/06/14 12:03:34;;;;;;;;;;;;;;;20.09;43.64;102161.72;5062297;28;19931;-61
2022/06/14 12:06:08;;;;;;;;;;;;;;;20.18;44.07;102170.50;5052685;28;19935;-62
2022/06/14 12:08:46;;;;;;;;;;;;;;;20.51;41.58;102167.25;5063921;28;19985;-62
2022/06/14 12:11:20;;;;;;;;;;;;;;;20.21;44.12;102162.03;5063630;28;19920;-61
2022/06/14 12:13:49;;;;;;;;;;;;;;;20.24;43.16;102164.31;5063156;28;20011;-62
2022/06/14 12:16:26;;;;;;;;;;;;;;;20.18;42.50;102159.72;5063327;28;19924;-61
2022/06/14 12:18:57;;;;;;;;;;;;;;;20.19;43.16;102158.72;5062087;28;19947;-63
2022/06/14 12:21:28;;;;;;;;;;;;;;;20.38;44.34;102154.50;5055309;28;19924;-61
2022/06/14 12:23:56;;;;;;;;;;;;;;;20.54;43.75;102158.75;5052191;28;20875;-62
2022/06/14 12:26:34;;;;;;;;;;;;;;;20.62;42.97;102155.09;5062352;28;19935;-61
2022/06/14 12:29:02;;;;;;;;;;;;;;;20.74;43.77;102151.84;5062244;28;19924;-64
2022/06/14 12:31:32;;;;;;;;;;;;;;;20.89;43.42;102155.31;5062982;28;19943;-62
2022/06/14 12:34:05;;;;;;;;;;;;;;;20.91;42.77;102152.38;5065183;28;19928;-62
2022/06/14 12:36:53;;;;;;;;;;;;;;;21.02;41.69;102151.81;5064126;28;19921;-61
2022/06/14 12:39:29;;;;;;;;;;;;;;;20.90;41.77;102145.34;5063016;28;19951;-61
2022/06/14 12:42:27;;;;;;;;;;;;;;;20.78;41.74;102147.72;5061257;28;19934;-62
2022/06/14 12:44:53;;;;;;;;;;;;;;;20.72;42.15;102143.13;5000371;28;19973;-62
2022/06/14 12:47:18;;;;;;;;;;;;;;;;;;5063493;28;19924;-61
2022/06/14 12:49:46;;;;;;;;;;;;;;;20.94;42.64;102135.81;5056353;28;20299;-62
2022/06/14 12:52:38;;;;;;;;;;;;;;;21.04;42.20;102125.50;5061864;28;19925;-61
2022/06/14 12:55:06;;;;;;;;;;;;;;;21.17;42.04;102132.00;5056426;28;19924;-61
2022/06/14 12:57:47;;;;;;;;;;;;;;;21.19;40.91;102124.53;5061368;28;19970;-61
2022/06/14 13:00:12;;;;;;;;;;;;;;;21.22;42.49;102132.22;5062462;28;19982;-63
2022/06/14 13:03:04;;;;;;;;;;;;;;;21.35;42.22;102121.47;5058284;28;19963;-61
2022/06/14 13:05:35;;;;;;;;;;;;;;;21.41;42.05;102124.41;5057853;28;20013;-61
2022/06/14 13:08:00;;;;;;;;;;;;;;;21.58;39.95;102125.69;5060706;28;19931;-63
2022/06/14 13:10:31;;;;;;;;;;;;;;;21.44;41.49;102121.28;5071267;28;19920;-61
2022/06/14 13:13:15;;;;;;;;;;;;;;;21.63;38.63;102116.97;5070339;28;20436;-63
2022/06/14 13:15:53;;;;;;;;;;;;;;;21.40;40.10;102111.94;5063753;28;19989;-62
2022/06/14 13:18:22;;;;;;;;;;;;;;;21.46;39.66;102103.03;5068597;28;19959;-63
2022/06/14 13:20:47;;;;;;;;;;;;;;;21.43;41.21;102106.97;5066884;28;19985;-61